createdAt,value
2023-02-12T00:01:53.550Z,1.10
2023-02-12T00:04:22.335Z,1.10
2023-02-12T00:06:50.819Z,1.30
2023-02-12T00:09:19.327Z,1.40
2023-02-12T00:11:47.721Z,1.00
2023-02-12T00:14:16.464Z,1.00
2023-02-12T00:16:45.036Z,1.10
2023-02-12T00:19:13.688Z,1.20
2023-02-12T00:21:42.093Z,1.20
2023-02-12T00:24:10.674Z,1.30
2023-02-12T00:26:39.192Z,1.20
2023-02-12T00:29:07.900Z,1.40
2023-02-12T00:31:36.626Z,1.40
2023-02-12T00:34:05.129Z,1.30
2023-02-12T00:36:33.923Z,1.20
2023-02-12T00:39:02.631Z,1.30
2023-02-12T00:41:31.767Z,1.10
2023-02-12T00:44:00.421Z,1.10
2023-02-12T00:46:29.283Z,1.00
2023-02-12T00:48:58.187Z,1.30
2023-02-12T00:51:27.082Z,1.20
2023-02-12T00:53:56.021Z,1.40
2023-02-12T00:56:24.662Z,1.50
2023-02-12T00:58:53.258Z,1.10
2023-02-12T01:01:22.461Z,1.50
2023-02-12T01:03:51.113Z,1.40
2023-02-12T01:06:19.674Z,1.30
2023-02-12T01:08:51.976Z,1.10
2023-02-12T01:11:21.072Z,1.20
2023-02-12T01:13:49.789Z,1.20
2023-02-12T01:16:22.589Z,1.00
2023-02-12T01:18:55.787Z,1.60
2023-02-12T01:21:27.733Z,1.40
2023-02-12T01:23:57.225Z,1.20
2023-02-12T01:26:26.709Z,0.80
2023-02-12T01:28:58.758Z,1.10
2023-02-12T01:31:30.731Z,1.10
2023-02-12T01:34:01.013Z,1.20
2023-02-12T01:36:31.112Z,1.10
2023-02-12T01:39:03.071Z,1.10
2023-02-12T01:41:35.614Z,1.00
2023-02-12T01:44:10.058Z,0.70
2023-02-12T01:46:39.532Z,0.90
2023-02-12T01:49:14.786Z,0.80
2023-02-12T01:51:46.226Z,1.00
2023-02-12T01:54:15.953Z,1.10
2023-02-12T01:56:45.073Z,0.90
2023-02-12T01:59:13.802Z,0.80
2023-02-12T02:01:42.343Z,0.70
2023-02-12T02:04:20.113Z,0.90
2023-02-12T02:06:54.717Z,0.90
2023-02-12T02:09:23.800Z,1.00
2023-02-12T02:12:13.691Z,0.80
2023-02-12T02:14:43.109Z,0.80
2023-02-12T02:17:31.276Z,0.80
2023-02-12T02:20:32.905Z,0.80
2023-02-12T02:23:10.689Z,0.90
2023-02-12T02:26:01.431Z,0.80
2023-02-12T02:31:21.116Z,0.90
2023-02-12T02:34:09.726Z,0.80
2023-02-12T02:36:54.096Z,0.80
2023-02-12T02:39:44.387Z,0.80
2023-02-12T02:42:38.973Z,0.80
2023-02-12T02:45:34.956Z,0.70
2023-02-12T02:48:33.068Z,0.70
2023-02-12T02:51:16.129Z,0.90
2023-02-12T02:53:51.986Z,1.00
2023-02-12T02:56:23.801Z,0.80
2023-02-12T02:59:01.409Z,0.70
2023-02-12T03:02:01.993Z,0.50
2023-02-12T03:07:17.077Z,0.70
2023-02-12T03:09:50.113Z,0.80
2023-02-12T03:12:34.852Z,0.90
2023-02-12T03:15:20.236Z,1.00
2023-02-12T03:17:50.765Z,0.70
2023-02-12T03:23:09.323Z,0.80
2023-02-12T03:25:57.402Z,0.90
2023-02-12T03:28:29.214Z,0.60
2023-02-12T03:31:06.971Z,1.20
2023-02-12T03:33:45.173Z,0.80
2023-02-12T03:36:38.073Z,1.00
2023-02-12T03:39:35.815Z,1.20
2023-02-12T03:42:19.031Z,0.90
2023-02-12T03:44:57.092Z,0.90
2023-02-12T03:47:41.727Z,0.80
2023-02-12T03:50:27.727Z,0.70
2023-02-12T03:52:56.332Z,0.90
2023-02-12T03:55:25.222Z,0.60
2023-02-12T03:58:01.101Z,0.60
2023-02-12T04:00:29.819Z,0.80
2023-02-12T04:02:58.825Z,0.90
2023-02-12T04:05:28.842Z,0.70
2023-02-12T04:07:59.099Z,0.90
2023-02-12T04:10:36.611Z,1.00
2023-02-12T04:13:15.163Z,0.80
2023-02-12T04:16:07.687Z,0.80
2023-02-12T04:18:49.935Z,0.80
2023-02-12T04:21:32.950Z,0.90
2023-02-12T04:24:31.032Z,0.90
2023-02-12T04:27:26.034Z,0.60
2023-02-12T04:30:15.316Z,0.80
2023-02-12T04:32:48.522Z,0.80
2023-02-12T04:35:48.834Z,0.90
2023-02-12T04:38:36.722Z,0.80
2023-02-12T04:41:07.503Z,0.80
2023-02-12T04:43:37.828Z,1.00
2023-02-12T04:46:08.980Z,0.90
2023-02-12T04:48:52.203Z,0.70
2023-02-12T04:51:21.266Z,0.80
2023-02-12T04:53:50.497Z,1.30
2023-02-12T04:56:19.019Z,1.40
2023-02-12T04:58:47.588Z,1.30
2023-02-12T05:01:16.393Z,1.10
2023-02-12T05:03:45.089Z,1.20
2023-02-12T05:06:13.676Z,1.40
2023-02-12T05:08:42.294Z,1.20
2023-02-12T05:11:12.227Z,1.30
2023-02-12T05:13:42.084Z,1.20
2023-02-12T05:16:10.814Z,1.90
2023-02-12T05:18:39.569Z,1.30
2023-02-12T05:21:08.107Z,1.30
2023-02-12T05:23:38.974Z,1.20
2023-02-12T05:26:11.890Z,1.10
2023-02-12T05:28:40.847Z,1.20
2023-02-12T05:31:11.628Z,1.40
2023-02-12T05:33:44.085Z,1.40
2023-02-12T05:36:19.390Z,1.70
2023-02-12T05:38:48.860Z,1.40
2023-02-12T05:41:20.847Z,1.30
2023-02-12T05:43:50.769Z,1.70
2023-02-12T05:46:20.873Z,1.70
2023-02-12T05:48:49.689Z,1.30
2023-02-12T05:51:22.173Z,1.40
2023-02-12T05:53:52.959Z,1.30
2023-02-12T05:56:33.438Z,1.20
2023-02-12T05:59:08.423Z,1.20
2023-02-12T06:01:40.322Z,1.30
2023-02-12T06:04:24.010Z,1.50
2023-02-12T06:06:54.778Z,1.20
2023-02-12T06:09:23.786Z,1.10
2023-02-12T06:11:52.524Z,1.40
2023-02-12T06:14:21.830Z,1.20
2023-02-12T06:16:51.801Z,1.40
2023-02-12T06:19:21.006Z,1.50
2023-02-12T06:21:49.861Z,1.70
2023-02-12T06:24:18.830Z,2.30
2023-02-12T06:26:51.173Z,1.90
2023-02-12T06:29:20.965Z,1.90
2023-02-12T06:31:49.886Z,1.90
2023-02-12T06:34:18.748Z,2.00
2023-02-12T06:36:48.621Z,2.00
2023-02-12T06:39:18.225Z,1.60
2023-02-12T06:41:46.789Z,1.90
2023-02-12T06:44:15.402Z,1.90
2023-02-12T06:46:44.906Z,2.00
2023-02-12T06:49:14.840Z,2.00
2023-02-12T06:51:43.437Z,2.00
2023-02-12T06:54:17.904Z,1.80
2023-02-12T06:56:46.564Z,1.80
2023-02-12T06:59:16.954Z,1.90
2023-02-12T07:01:45.602Z,1.60
2023-02-12T07:04:14.431Z,1.70
2023-02-12T07:06:43.233Z,1.90
2023-02-12T07:09:11.956Z,2.20
2023-02-12T07:11:40.627Z,2.20
2023-02-12T07:14:17.171Z,2.00
2023-02-12T07:16:45.840Z,2.00
2023-02-12T07:19:19.348Z,2.20
2023-02-12T07:21:48.518Z,2.00
2023-02-12T07:24:19.343Z,2.50
2023-02-12T07:26:50.583Z,2.10
2023-02-12T07:29:19.715Z,2.30
2023-02-12T07:31:49.435Z,1.80
2023-02-12T07:34:20.142Z,2.10
2023-02-12T07:36:51.483Z,1.90
2023-02-12T07:39:20.984Z,2.10
2023-02-12T07:41:51.607Z,2.20
2023-02-12T07:44:22.514Z,2.20
2023-02-12T07:46:51.534Z,2.60
2023-02-12T07:49:25.087Z,1.90
2023-02-12T07:51:57.763Z,2.30
2023-02-12T07:54:27.269Z,2.50
2023-02-12T07:56:56.116Z,2.70
2023-02-12T07:59:25.131Z,3.10
2023-02-12T08:01:55.575Z,3.10
2023-02-12T08:04:26.386Z,2.70
2023-02-12T08:06:58.651Z,2.20
2023-02-12T08:09:31.401Z,2.20
2023-02-12T08:12:00.220Z,3.90
2023-02-12T08:14:29.469Z,3.40
2023-02-12T08:17:00.939Z,2.90
2023-02-12T08:19:31.177Z,3.50
2023-02-12T08:21:59.787Z,2.30
2023-02-12T08:24:31.578Z,2.40
2023-02-12T08:27:00.720Z,2.20
2023-02-12T08:29:32.107Z,2.40
2023-02-12T08:32:06.693Z,2.40
2023-02-12T08:34:36.395Z,2.10
2023-02-12T08:37:06.940Z,2.20
2023-02-12T08:39:38.333Z,2.70
2023-02-12T08:42:07.639Z,2.60
2023-02-12T08:44:37.656Z,2.60
2023-02-12T08:47:07.402Z,2.50
2023-02-12T08:49:36.672Z,2.50
2023-02-12T08:52:08.248Z,2.20
2023-02-12T08:54:36.780Z,2.50
2023-02-12T08:57:05.798Z,2.50
2023-02-12T08:59:39.786Z,6.50
2023-02-12T09:02:11.246Z,3.90
2023-02-12T09:04:42.821Z,4.30
2023-02-12T09:07:11.812Z,2.90
2023-02-12T09:09:41.921Z,2.20
2023-02-12T09:12:10.735Z,2.40
2023-02-12T09:14:39.274Z,2.60
2023-02-12T09:17:08.015Z,2.90
2023-02-12T09:19:37.241Z,2.70
2023-02-12T09:22:05.848Z,2.70
2023-02-12T09:24:34.291Z,2.90
2023-02-12T09:27:02.870Z,3.00
2023-02-12T09:29:31.687Z,3.30
2023-02-12T09:32:00.310Z,3.10
2023-02-12T09:34:29.029Z,3.80
2023-02-12T09:36:57.648Z,3.20
2023-02-12T09:39:29.299Z,3.10
2023-02-12T09:42:20.116Z,3.10
2023-02-12T09:45:29.536Z,3.30
2023-02-12T09:48:18.380Z,3.40
2023-02-12T09:50:50.986Z,3.20
2023-02-12T09:53:23.953Z,2.90
2023-02-12T09:55:52.510Z,3.20
2023-02-12T09:58:34.481Z,3.60
2023-02-12T10:01:15.252Z,3.40
2023-02-12T10:03:45.912Z,3.40
2023-02-12T10:06:22.949Z,4.00
2023-02-12T10:08:58.137Z,3.90
2023-02-12T10:11:53.502Z,2.90
2023-02-12T10:14:42.184Z,2.90
2023-02-12T10:17:26.095Z,2.90
2023-02-12T10:20:09.995Z,3.30
2023-02-12T10:22:57.391Z,3.20
2023-02-12T10:25:53.008Z,3.10
2023-02-12T10:28:33.208Z,3.00
2023-02-12T10:31:06.285Z,2.80
2023-02-12T10:33:41.534Z,3.20
2023-02-12T10:36:33.700Z,3.00
2023-02-12T10:39:09.214Z,3.30
2023-02-12T10:41:46.110Z,3.00
2023-02-12T10:44:14.798Z,3.10
2023-02-12T10:46:43.794Z,3.00
2023-02-12T10:49:16.189Z,3.10
2023-02-12T10:52:03.962Z,3.30
2023-02-12T10:54:47.325Z,3.30
2023-02-12T10:57:26.899Z,3.80
2023-02-12T10:59:57.735Z,3.10
2023-02-12T11:02:33.063Z,3.80
2023-02-12T11:05:26.614Z,3.80
2023-02-12T11:07:58.797Z,3.60
2023-02-12T11:10:32.226Z,3.80
2023-02-12T11:13:02.328Z,4.20
2023-02-12T11:15:38.389Z,3.80
2023-02-12T11:18:08.883Z,4.10
2023-02-12T11:20:49.597Z,4.90
2023-02-12T11:23:31.094Z,4.50
2023-02-12T11:26:01.427Z,4.10
2023-02-12T11:28:32.379Z,4.40
2023-02-12T11:31:22.943Z,4.20
2023-02-12T11:34:20.089Z,4.50
2023-02-12T11:36:54.702Z,4.30
2023-02-12T11:39:33.974Z,4.50
2023-02-12T11:42:06.040Z,5.70
2023-02-12T11:44:44.703Z,4.50
2023-02-12T11:47:20.769Z,5.20
2023-02-12T11:49:55.518Z,4.20
2023-02-12T11:52:34.961Z,4.80
2023-02-12T11:55:19.567Z,4.30
2023-02-12T11:57:52.597Z,4.80
2023-02-12T12:00:25.541Z,5.20
2023-02-12T12:03:02.563Z,5.00
2023-02-12T12:05:39.280Z,4.60
2023-02-12T12:08:16.964Z,4.50
2023-02-12T12:10:53.169Z,5.00
2023-02-12T12:13:40.008Z,5.20
2023-02-12T12:16:39.659Z,5.60
2023-02-12T12:19:52.844Z,4.60
2023-02-12T12:22:37.310Z,4.30
2023-02-12T12:25:19.395Z,4.90
2023-02-12T12:28:03.677Z,4.70
2023-02-12T12:31:05.346Z,5.00
2023-02-12T12:33:47.710Z,4.40
2023-02-12T12:36:59.624Z,4.10
2023-02-12T12:39:44.126Z,4.20
2023-02-12T12:42:51.120Z,4.20
2023-02-12T12:45:44.805Z,4.60
2023-02-12T12:48:32.443Z,4.10
2023-02-12T12:51:20.959Z,4.60
2023-02-12T12:54:06.971Z,4.30
2023-02-12T12:57:28.312Z,4.00
2023-02-12T13:00:25.015Z,4.20
2023-02-12T13:03:13.921Z,3.90
2023-02-12T13:05:52.081Z,4.30
2023-02-12T13:08:21.216Z,4.60
2023-02-12T13:10:56.976Z,4.50
2023-02-12T13:13:38.085Z,4.20
2023-02-12T13:16:07.673Z,5.70
2023-02-12T13:19:01.153Z,4.90
2023-02-12T13:21:38.083Z,5.40
2023-02-12T13:24:25.159Z,4.80
2023-02-12T13:27:08.514Z,5.30
2023-02-12T13:30:20.711Z,4.90
2023-02-12T13:33:07.072Z,4.50
2023-02-12T13:35:42.597Z,4.80
2023-02-12T13:38:19.591Z,4.30
2023-02-12T13:40:50.161Z,4.20
2023-02-12T13:43:24.781Z,4.20
2023-02-12T13:46:04.119Z,4.30
2023-02-12T13:48:52.707Z,4.10
2023-02-12T13:51:55.876Z,3.90
2023-02-12T13:54:46.492Z,3.90
2023-02-12T13:57:18.419Z,4.20
2023-02-12T13:59:57.570Z,4.20
2023-02-12T14:02:53.476Z,4.20
2023-02-12T14:05:29.333Z,4.20
2023-02-12T14:08:02.404Z,4.40
2023-02-12T14:10:38.862Z,4.30
2023-02-12T14:13:18.374Z,4.30
2023-02-12T14:15:55.368Z,5.00
2023-02-12T14:18:26.998Z,4.70
2023-02-12T14:21:14.772Z,4.40
2023-02-12T14:23:45.064Z,5.40
2023-02-12T14:26:21.663Z,5.40
2023-02-12T14:29:05.289Z,4.90
2023-02-12T14:31:39.907Z,5.10
2023-02-12T14:34:22.802Z,5.70
2023-02-12T14:37:18.761Z,4.90
2023-02-12T14:39:53.077Z,5.70
2023-02-12T14:42:25.272Z,5.30
2023-02-12T14:44:58.608Z,5.80
2023-02-12T14:47:34.256Z,5.00
2023-02-12T14:50:14.021Z,5.50
2023-02-12T14:53:13.294Z,5.70
2023-02-12T14:55:53.110Z,5.60
2023-02-12T14:58:26.368Z,5.30
2023-02-12T15:00:58.781Z,5.30
2023-02-12T15:03:51.972Z,5.40
2023-02-12T15:06:25.719Z,6.40
2023-02-12T15:09:01.903Z,5.80
2023-02-12T15:11:35.990Z,6.00
2023-02-12T15:14:19.570Z,5.80
2023-02-12T15:17:07.618Z,5.70
2023-02-12T15:19:42.933Z,6.00
2023-02-12T15:22:24.238Z,6.40
2023-02-12T15:24:53.676Z,6.20
2023-02-12T15:27:25.062Z,6.50
2023-02-12T15:29:57.656Z,6.00
2023-02-12T15:32:33.856Z,6.60
2023-02-12T15:35:03.240Z,6.20
2023-02-12T15:37:33.771Z,6.60
2023-02-12T15:40:11.976Z,6.60
2023-02-12T15:42:51.876Z,7.30
2023-02-12T15:45:26.090Z,6.80
2023-02-12T15:48:10.067Z,7.40
2023-02-12T15:51:01.239Z,7.70
2023-02-12T15:53:33.707Z,7.30
2023-02-12T15:56:04.530Z,8.00
2023-02-12T15:58:58.456Z,7.40
2023-02-12T16:01:35.502Z,8.60
2023-02-12T16:04:09.916Z,9.10
2023-02-12T16:06:40.231Z,9.30
2023-02-12T16:11:48.789Z,10.30
2023-02-12T16:14:27.251Z,10.30
2023-02-12T16:17:02.081Z,11.30
2023-02-12T16:19:33.520Z,11.00
2023-02-12T16:22:23.199Z,10.50
2023-02-12T16:24:54.560Z,10.20
2023-02-12T16:27:33.864Z,10.60
2023-02-12T16:30:35.131Z,10.40
2023-02-12T16:33:26.374Z,10.40
2023-02-12T16:36:23.411Z,12.30
2023-02-12T16:38:56.311Z,11.00
2023-02-12T16:41:31.249Z,10.20
2023-02-12T16:44:01.836Z,11.90
2023-02-12T16:51:40.587Z,11.90
2023-02-12T16:54:33.536Z,12.40
2023-02-12T16:57:03.809Z,13.10
2023-02-12T16:59:32.750Z,12.60
2023-02-12T17:09:50.364Z,13.30
2023-02-12T17:12:20.893Z,12.60
2023-02-12T17:14:53.236Z,12.80
2023-02-12T17:17:27.995Z,13.10
2023-02-12T17:19:56.788Z,13.10
2023-02-12T17:22:29.129Z,12.30
2023-02-12T17:24:58.325Z,11.60
2023-02-12T17:27:27.202Z,11.10
2023-02-12T17:29:57.645Z,13.30
2023-02-12T17:32:26.698Z,12.70
2023-02-12T17:34:56.517Z,13.30
2023-02-12T17:37:26.053Z,13.40
2023-02-12T17:39:56.572Z,14.00
2023-02-12T17:42:25.533Z,12.90
2023-02-12T17:44:54.649Z,14.20
2023-02-12T17:47:27.534Z,12.80
2023-02-12T17:49:56.799Z,14.70
2023-02-12T17:52:26.158Z,13.90
2023-02-12T17:54:55.653Z,14.80
2023-02-12T17:57:25.330Z,15.50
2023-02-12T17:59:54.344Z,15.70
2023-02-12T18:02:24.255Z,17.70
2023-02-12T18:04:56.836Z,17.30
2023-02-12T18:07:26.542Z,16.70
2023-02-12T18:10:00.708Z,16.50
2023-02-12T18:12:40.124Z,17.20
2023-02-12T18:15:18.609Z,17.70
2023-02-12T18:17:49.958Z,18.10
2023-02-12T18:20:18.735Z,17.90
2023-02-12T18:22:48.367Z,18.60
2023-02-12T18:25:20.649Z,14.40
2023-02-12T18:27:51.235Z,14.50
2023-02-12T18:30:22.926Z,14.80
2023-02-12T18:32:55.679Z,16.00
2023-02-12T18:35:26.843Z,19.30
2023-02-12T18:37:55.999Z,16.50
2023-02-12T18:40:27.604Z,16.60
2023-02-12T18:42:56.898Z,15.50
2023-02-12T18:45:26.707Z,13.90
2023-02-12T18:47:56.145Z,14.30
2023-02-12T18:50:25.459Z,14.20
2023-02-12T18:52:55.849Z,15.50
2023-02-12T18:55:35.019Z,16.10
2023-02-12T18:58:08.634Z,15.50
2023-02-12T19:00:39.657Z,16.10
2023-02-12T19:03:14.974Z,18.60
2023-02-12T19:05:44.139Z,18.60
2023-02-12T19:08:15.996Z,15.10
2023-02-12T19:10:49.887Z,13.70
2023-02-12T19:13:19.280Z,15.20
2023-02-12T19:15:54.324Z,14.80
2023-02-12T19:18:23.697Z,15.30
2023-02-12T19:20:55.283Z,15.00
2023-02-12T19:23:24.248Z,15.20
2023-02-12T19:25:53.172Z,14.80
2023-02-12T19:28:24.409Z,15.10
2023-02-12T19:30:53.209Z,14.00
2023-02-12T19:33:21.962Z,15.00
2023-02-12T19:36:18.373Z,15.50
2023-02-12T19:38:50.083Z,14.70
2023-02-12T19:41:21.694Z,15.30
2023-02-12T19:43:57.095Z,15.10
2023-02-12T19:46:28.462Z,14.30
2023-02-12T19:49:00.646Z,14.40
2023-02-12T19:51:30.706Z,13.60
2023-02-12T19:54:05.044Z,15.20
2023-02-12T19:56:35.819Z,15.40
2023-02-12T20:01:39.478Z,15.50
2023-02-12T20:04:08.423Z,15.00
2023-02-12T20:06:38.399Z,14.80
2023-02-12T20:09:08.982Z,13.80
2023-02-12T20:14:10.524Z,14.00
2023-02-12T20:17:14.016Z,14.80
2023-02-12T20:19:45.062Z,14.90
2023-02-12T20:22:14.401Z,15.70
2023-02-12T20:24:43.113Z,15.30
2023-02-12T20:27:12.560Z,15.80
2023-02-12T20:29:41.665Z,14.40
2023-02-12T20:32:11.979Z,13.80
2023-02-12T20:34:50.438Z,13.80
2023-02-12T20:37:20.343Z,16.00
2023-02-12T20:39:49.244Z,14.10
2023-02-12T20:42:21.022Z,13.80
2023-02-12T20:44:50.359Z,15.20
2023-02-12T20:47:19.474Z,12.90
2023-02-12T20:49:48.200Z,13.10
2023-02-12T20:52:17.184Z,13.20
2023-02-12T20:54:48.007Z,14.30
2023-02-12T20:57:18.045Z,15.00
2023-02-12T20:59:50.104Z,14.00
2023-02-12T21:02:19.006Z,14.20
2023-02-12T21:04:51.392Z,13.50
2023-02-12T21:07:20.120Z,12.90
2023-02-12T21:09:49.350Z,13.60
2023-02-12T21:12:20.292Z,14.00
2023-02-12T21:14:49.484Z,13.40
2023-02-12T21:17:20.591Z,12.00
2023-02-12T21:19:49.722Z,13.10
2023-02-12T21:22:18.507Z,11.80
2023-02-12T21:24:47.371Z,11.70
2023-02-12T21:27:16.989Z,12.50
2023-02-12T21:29:46.185Z,12.20
2023-02-12T21:32:19.576Z,12.80
2023-02-12T21:34:49.132Z,12.40
2023-02-12T21:37:18.189Z,12.00
2023-02-12T21:39:47.213Z,10.50
2023-02-12T21:42:16.607Z,11.40
2023-02-12T21:44:45.762Z,10.10
2023-02-12T21:47:15.007Z,11.30
2023-02-12T21:49:44.037Z,12.20
2023-02-12T21:52:13.821Z,11.30
2023-02-12T21:54:43.695Z,11.70
2023-02-12T21:57:18.614Z,11.70
2023-02-12T21:59:47.360Z,11.30
2023-02-12T22:02:16.026Z,11.50
2023-02-12T22:04:45.812Z,11.40
2023-02-12T22:07:16.385Z,12.40
2023-02-12T22:12:13.246Z,11.40
2023-02-12T22:14:41.812Z,11.00
2023-02-12T22:17:10.363Z,11.80
2023-02-12T22:19:39.656Z,12.10
2023-02-12T22:22:11.524Z,12.70
2023-02-12T22:24:39.976Z,12.90
2023-02-12T22:27:08.696Z,12.90
2023-02-12T22:29:37.396Z,12.70
2023-02-12T22:32:05.951Z,11.60
2023-02-12T22:34:34.708Z,12.10
2023-02-12T22:37:03.312Z,12.00
2023-02-12T22:39:31.798Z,11.30
2023-02-12T22:42:00.399Z,13.20
2023-02-12T22:44:29.130Z,12.30
2023-02-12T22:46:57.689Z,12.90
2023-02-12T22:49:26.240Z,12.60
2023-02-12T22:51:55.012Z,11.80
2023-02-12T22:54:23.677Z,11.00
2023-02-12T22:56:53.137Z,11.80
2023-02-12T22:59:21.845Z,11.50
2023-02-12T23:01:50.791Z,11.70
2023-02-12T23:04:20.105Z,11.90
2023-02-12T23:06:48.795Z,12.30
2023-02-12T23:09:19.379Z,12.70
2023-02-12T23:11:48.690Z,11.30
2023-02-12T23:14:18.229Z,10.70
2023-02-12T23:16:47.394Z,12.00
2023-02-12T23:19:16.245Z,11.30
2023-02-12T23:21:45.096Z,11.80
2023-02-12T23:24:14.572Z,10.50
2023-02-12T23:26:43.555Z,9.70
2023-02-12T23:29:13.855Z,10.00
2023-02-12T23:34:14.646Z,9.10
2023-02-12T23:36:48.970Z,9.80
2023-02-12T23:39:18.097Z,9.90
2023-02-12T23:41:48.963Z,9.70
2023-02-12T23:44:25.020Z,9.80
2023-02-12T23:46:56.960Z,9.70
2023-02-12T23:49:27.030Z,9.60
2023-02-12T23:51:59.008Z,10.00
2023-02-12T23:54:28.672Z,10.40
2023-02-12T23:56:57.306Z,11.60
2023-02-12T23:59:26.594Z,9.70
